sensor_id;sensor_type;location;lat;lon;timestamp;P1;durP1;ratioP1;P2;durP2;ratioP2
18789;SDS011;9523;42.650;23.386;2023-05-23T00:01:46;17.73;;;11.50;;
18789;SDS011;9523;42.650;23.386;2023-05-23T00:04:13;18.50;;;11.83;;
18789;SDS011;9523;42.650;23.386;2023-05-23T00:06:43;17.07;;;11.37;;
18789;SDS011;9523;42.650;23.386;2023-05-23T00:09:11;15.60;;;11.13;;
18789;SDS011;9523;42.650;23.386;2023-05-23T00:11:38;17.87;;;11.73;;
18789;SDS011;9523;42.650;23.386;2023-05-23T00:14:10;16.13;;;10.97;;
18789;SDS011;9523;42.650;23.386;2023-05-23T00:16:38;16.67;;;11.97;;
18789;SDS011;9523;42.650;23.386;2023-05-23T00:19:07;13.70;;;10.23;;
18789;SDS011;9523;42.650;23.386;2023-05-23T00:21:34;17.23;;;10.93;;
18789;SDS011;9523;42.650;23.386;2023-05-23T00:24:01;14.03;;;10.70;;
18789;SDS011;9523;42.650;23.386;2023-05-23T00:26:28;14.73;;;9.93;;
18789;SDS011;9523;42.650;23.386;2023-05-23T00:28:56;14.40;;;10.10;;
18789;SDS011;9523;42.650;23.386;2023-05-23T00:31:24;14.00;;;9.50;;
18789;SDS011;9523;42.650;23.386;2023-05-23T00:33:51;14.10;;;9.17;;
18789;SDS011;9523;42.650;23.386;2023-05-23T00:36:18;10.70;;;8.00;;
18789;SDS011;9523;42.650;23.386;2023-05-23T00:38:46;11.93;;;7.90;;
18789;SDS011;9523;42.650;23.386;2023-05-23T00:41:13;12.03;;;7.57;;
18789;SDS011;9523;42.650;23.386;2023-05-23T00:43:40;8.93;;;6.67;;
18789;SDS011;9523;42.650;23.386;2023-05-23T00:46:07;7.97;;;6.80;;
18789;SDS011;9523;42.650;23.386;2023-05-23T00:48:36;9.73;;;6.30;;
18789;SDS011;9523;42.650;23.386;2023-05-23T00:51:03;7.17;;;5.50;;
18789;SDS011;9523;42.650;23.386;2023-05-23T00:53:30;8.67;;;6.10;;
18789;SDS011;9523;42.650;23.386;2023-05-23T00:55:59;9.07;;;6.33;;
18789;SDS011;9523;42.650;23.386;2023-05-23T00:58:25;10.13;;;6.63;;
18789;SDS011;9523;42.650;23.386;2023-05-23T01:00:52;7.73;;;5.40;;
18789;SDS011;9523;42.650;23.386;2023-05-23T01:03:19;9.03;;;6.47;;
18789;SDS011;9523;42.650;23.386;2023-05-23T01:05:49;9.57;;;5.60;;
18789;SDS011;9523;42.650;23.386;2023-05-23T01:08:15;8.03;;;5.80;;
18789;SDS011;9523;42.650;23.386;2023-05-23T01:10:42;8.70;;;5.63;;
18789;SDS011;9523;42.650;23.386;2023-05-23T01:13:12;8.63;;;5.83;;
18789;SDS011;9523;42.650;23.386;2023-05-23T01:15:54;6.70;;;5.20;;
18789;SDS011;9523;42.650;23.386;2023-05-23T01:18:26;8.50;;;5.63;;
18789;SDS011;9523;42.650;23.386;2023-05-23T01:21:00;8.00;;;5.97;;
18789;SDS011;9523;42.650;23.386;2023-05-23T01:23:40;8.37;;;5.90;;
18789;SDS011;9523;42.650;23.386;2023-05-23T01:26:25;8.10;;;6.47;;
18789;SDS011;9523;42.650;23.386;2023-05-23T01:29:02;7.17;;;5.97;;
18789;SDS011;9523;42.650;23.386;2023-05-23T01:31:35;8.10;;;5.80;;
18789;SDS011;9523;42.650;23.386;2023-05-23T01:34:05;8.30;;;6.00;;
18789;SDS011;9523;42.650;23.386;2023-05-23T01:36:33;8.00;;;5.20;;
18789;SDS011;9523;42.650;23.386;2023-05-23T01:39:05;7.50;;;5.90;;
18789;SDS011;9523;42.650;23.386;2023-05-23T01:41:32;9.60;;;6.37;;
18789;SDS011;9523;42.650;23.386;2023-05-23T01:44:00;7.37;;;5.93;;
18789;SDS011;9523;42.650;23.386;2023-05-23T01:46:28;8.47;;;6.37;;
18789;SDS011;9523;42.650;23.386;2023-05-23T01:48:58;13.30;;;7.27;;
18789;SDS011;9523;42.650;23.386;2023-05-23T01:51:26;8.60;;;6.47;;
18789;SDS011;9523;42.650;23.386;2023-05-23T01:53:54;10.63;;;7.10;;
18789;SDS011;9523;42.650;23.386;2023-05-23T01:56:22;14.10;;;6.93;;
18789;SDS011;9523;42.650;23.386;2023-05-23T01:58:50;10.63;;;6.80;;
18789;SDS011;9523;42.650;23.386;2023-05-23T02:01:19;10.20;;;7.17;;
18789;SDS011;9523;42.650;23.386;2023-05-23T02:03:46;8.87;;;5.77;;
18789;SDS011;9523;42.650;23.386;2023-05-23T02:06:14;5.77;;;5.10;;
18789;SDS011;9523;42.650;23.386;2023-05-23T02:08:41;7.67;;;5.60;;
18789;SDS011;9523;42.650;23.386;2023-05-23T02:11:08;6.83;;;5.30;;
18789;SDS011;9523;42.650;23.386;2023-05-23T02:13:35;7.87;;;5.47;;
18789;SDS011;9523;42.650;23.386;2023-05-23T02:16:02;7.00;;;5.13;;
18789;SDS011;9523;42.650;23.386;2023-05-23T02:18:30;6.80;;;5.33;;
18789;SDS011;9523;42.650;23.386;2023-05-23T02:20:57;6.53;;;4.83;;
18789;SDS011;9523;42.650;23.386;2023-05-23T02:23:24;5.13;;;4.57;;
18789;SDS011;9523;42.650;23.386;2023-05-23T02:25:51;5.07;;;4.47;;
18789;SDS011;9523;42.650;23.386;2023-05-23T02:28:18;7.87;;;5.20;;
18789;SDS011;9523;42.650;23.386;2023-05-23T02:30:45;7.10;;;4.93;;
18789;SDS011;9523;42.650;23.386;2023-05-23T02:33:11;8.67;;;5.10;;
18789;SDS011;9523;42.650;23.386;2023-05-23T02:35:40;7.03;;;5.10;;
18789;SDS011;9523;42.650;23.386;2023-05-23T02:38:06;5.97;;;4.80;;
18789;SDS011;9523;42.650;23.386;2023-05-23T02:40:33;7.87;;;4.17;;
18789;SDS011;9523;42.650;23.386;2023-05-23T02:43:00;7.63;;;3.80;;
18789;SDS011;9523;42.650;23.386;2023-05-23T02:45:29;6.10;;;4.30;;
18789;SDS011;9523;42.650;23.386;2023-05-23T02:47:55;6.83;;;4.50;;
18789;SDS011;9523;42.650;23.386;2023-05-23T02:50:22;5.47;;;4.00;;
18789;SDS011;9523;42.650;23.386;2023-05-23T02:52:51;5.53;;;4.23;;
18789;SDS011;9523;42.650;23.386;2023-05-23T02:55:17;8.93;;;4.43;;
18789;SDS011;9523;42.650;23.386;2023-05-23T02:57:44;5.23;;;4.33;;
18789;SDS011;9523;42.650;23.386;2023-05-23T03:00:12;6.77;;;4.53;;
18789;SDS011;9523;42.650;23.386;2023-05-23T03:02:39;6.10;;;4.13;;
18789;SDS011;9523;42.650;23.386;2023-05-23T03:05:07;5.93;;;4.27;;
18789;SDS011;9523;42.650;23.386;2023-05-23T03:07:34;4.17;;;3.57;;
18789;SDS011;9523;42.650;23.386;2023-05-23T03:10:02;5.20;;;4.13;;
18789;SDS011;9523;42.650;23.386;2023-05-23T03:12:29;4.70;;;4.20;;
18789;SDS011;9523;42.650;23.386;2023-05-23T03:14:57;7.37;;;4.10;;
18789;SDS011;9523;42.650;23.386;2023-05-23T03:17:24;6.80;;;4.17;;
18789;SDS011;9523;42.650;23.386;2023-05-23T03:19:51;5.10;;;4.47;;
18789;SDS011;9523;42.650;23.386;2023-05-23T03:22:19;5.67;;;4.37;;
18789;SDS011;9523;42.650;23.386;2023-05-23T03:24:46;5.23;;;4.33;;
18789;SDS011;9523;42.650;23.386;2023-05-23T03:27:14;4.97;;;4.13;;
18789;SDS011;9523;42.650;23.386;2023-05-23T03:29:41;5.10;;;3.77;;
18789;SDS011;9523;42.650;23.386;2023-05-23T03:32:08;5.50;;;4.40;;
18789;SDS011;9523;42.650;23.386;2023-05-23T03:34:35;7.00;;;3.97;;
18789;SDS011;9523;42.650;23.386;2023-05-23T03:37:02;5.43;;;4.33;;
18789;SDS011;9523;42.650;23.386;2023-05-23T03:39:30;4.80;;;3.80;;
18789;SDS011;9523;42.650;23.386;2023-05-23T03:42:00;4.47;;;4.00;;
18789;SDS011;9523;42.650;23.386;2023-05-23T03:44:28;4.70;;;4.10;;
18789;SDS011;9523;42.650;23.386;2023-05-23T03:46:55;5.40;;;4.40;;
18789;SDS011;9523;42.650;23.386;2023-05-23T03:49:21;4.57;;;3.90;;
18789;SDS011;9523;42.650;23.386;2023-05-23T03:51:52;5.23;;;4.07;;
18789;SDS011;9523;42.650;23.386;2023-05-23T03:54:18;4.63;;;4.00;;
18789;SDS011;9523;42.650;23.386;2023-05-23T03:56:45;4.63;;;3.77;;
18789;SDS011;9523;42.650;23.386;2023-05-23T03:59:12;8.60;;;3.90;;
18789;SDS011;9523;42.650;23.386;2023-05-23T04:01:40;5.90;;;4.10;;
18789;SDS011;9523;42.650;23.386;2023-05-23T04:04:07;5.97;;;4.73;;
18789;SDS011;9523;42.650;23.386;2023-05-23T04:06:36;5.67;;;4.40;;
18789;SDS011;9523;42.650;23.386;2023-05-23T04:09:03;6.00;;;4.90;;
18789;SDS011;9523;42.650;23.386;2023-05-23T04:11:30;6.27;;;4.50;;
18789;SDS011;9523;42.650;23.386;2023-05-23T04:13:57;5.80;;;4.50;;
18789;SDS011;9523;42.650;23.386;2023-05-23T04:16:24;6.53;;;4.53;;
18789;SDS011;9523;42.650;23.386;2023-05-23T04:18:52;5.20;;;4.20;;
18789;SDS011;9523;42.650;23.386;2023-05-23T04:21:19;5.67;;;4.73;;
18789;SDS011;9523;42.650;23.386;2023-05-23T04:23:48;8.03;;;5.30;;
18789;SDS011;9523;42.650;23.386;2023-05-23T04:26:16;9.97;;;5.93;;
18789;SDS011;9523;42.650;23.386;2023-05-23T04:28:42;11.43;;;7.17;;
18789;SDS011;9523;42.650;23.386;2023-05-23T04:31:10;10.97;;;7.80;;
18789;SDS011;9523;42.650;23.386;2023-05-23T04:33:37;11.10;;;6.83;;
18789;SDS011;9523;42.650;23.386;2023-05-23T04:36:06;8.70;;;6.47;;
18789;SDS011;9523;42.650;23.386;2023-05-23T04:38:34;11.73;;;8.17;;
18789;SDS011;9523;42.650;23.386;2023-05-23T04:41:03;12.10;;;7.93;;
18789;SDS011;9523;42.650;23.386;2023-05-23T04:43:30;10.90;;;8.17;;
18789;SDS011;9523;42.650;23.386;2023-05-23T04:45:57;10.73;;;7.60;;
18789;SDS011;9523;42.650;23.386;2023-05-23T04:48:24;12.07;;;7.53;;
18789;SDS011;9523;42.650;23.386;2023-05-23T04:50:52;10.33;;;8.23;;
18789;SDS011;9523;42.650;23.386;2023-05-23T04:53:21;11.43;;;7.50;;
18789;SDS011;9523;42.650;23.386;2023-05-23T04:55:48;12.07;;;7.97;;
18789;SDS011;9523;42.650;23.386;2023-05-23T04:58:15;12.63;;;8.37;;
18789;SDS011;9523;42.650;23.386;2023-05-23T05:00:42;9.67;;;7.13;;
18789;SDS011;9523;42.650;23.386;2023-05-23T05:03:10;12.37;;;8.70;;
18789;SDS011;9523;42.650;23.386;2023-05-23T05:05:37;14.73;;;8.67;;
18789;SDS011;9523;42.650;23.386;2023-05-23T05:08:04;12.47;;;9.00;;
18789;SDS011;9523;42.650;23.386;2023-05-23T05:10:35;13.40;;;8.20;;
18789;SDS011;9523;42.650;23.386;2023-05-23T05:13:02;12.30;;;8.20;;
18789;SDS011;9523;42.650;23.386;2023-05-23T05:15:29;12.57;;;8.53;;
18789;SDS011;9523;42.650;23.386;2023-05-23T05:17:56;16.10;;;9.47;;
18789;SDS011;9523;42.650;23.386;2023-05-23T05:20:23;14.97;;;9.63;;
18789;SDS011;9523;42.650;23.386;2023-05-23T05:22:55;12.87;;;9.03;;
18789;SDS011;9523;42.650;23.386;2023-05-23T05:25:22;14.07;;;8.83;;
18789;SDS011;9523;42.650;23.386;2023-05-23T05:27:52;16.50;;;10.30;;
18789;SDS011;9523;42.650;23.386;2023-05-23T05:30:19;17.80;;;10.67;;
18789;SDS011;9523;42.650;23.386;2023-05-23T05:32:46;17.67;;;11.03;;
18789;SDS011;9523;42.650;23.386;2023-05-23T05:35:13;17.70;;;11.33;;
18789;SDS011;9523;42.650;23.386;2023-05-23T05:37:40;21.20;;;11.40;;
18789;SDS011;9523;42.650;23.386;2023-05-23T05:40:07;23.93;;;12.63;;
18789;SDS011;9523;42.650;23.386;2023-05-23T05:42:35;21.13;;;12.93;;
18789;SDS011;9523;42.650;23.386;2023-05-23T05:45:03;22.40;;;13.17;;
18789;SDS011;9523;42.650;23.386;2023-05-23T05:47:31;21.30;;;12.03;;
18789;SDS011;9523;42.650;23.386;2023-05-23T05:49:57;21.03;;;11.87;;
18789;SDS011;9523;42.650;23.386;2023-05-23T05:52:24;23.17;;;13.00;;
18789;SDS011;9523;42.650;23.386;2023-05-23T05:54:51;21.23;;;13.27;;
18789;SDS011;9523;42.650;23.386;2023-05-23T05:57:22;19.80;;;11.53;;
18789;SDS011;9523;42.650;23.386;2023-05-23T05:59:48;19.30;;;12.17;;
18789;SDS011;9523;42.650;23.386;2023-05-23T06:02:17;21.73;;;13.07;;
18789;SDS011;9523;42.650;23.386;2023-05-23T06:04:44;19.27;;;12.23;;
18789;SDS011;9523;42.650;23.386;2023-05-23T06:07:11;20.07;;;12.80;;
18789;SDS011;9523;42.650;23.386;2023-05-23T06:09:38;24.30;;;14.27;;
18789;SDS011;9523;42.650;23.386;2023-05-23T06:12:05;49.93;;;25.90;;
18789;SDS011;9523;42.650;23.386;2023-05-23T06:14:32;26.80;;;16.53;;
18789;SDS011;9523;42.650;23.386;2023-05-23T06:16:59;23.10;;;14.83;;
18789;SDS011;9523;42.650;23.386;2023-05-23T06:19:27;25.10;;;16.03;;
18789;SDS011;9523;42.650;23.386;2023-05-23T06:21:54;37.23;;;21.27;;
18789;SDS011;9523;42.650;23.386;2023-05-23T06:24:21;28.03;;;16.10;;
18789;SDS011;9523;42.650;23.386;2023-05-23T06:26:48;25.17;;;15.57;;
18789;SDS011;9523;42.650;23.386;2023-05-23T06:29:15;27.30;;;15.37;;
18789;SDS011;9523;42.650;23.386;2023-05-23T06:31:42;24.83;;;15.80;;
18789;SDS011;9523;42.650;23.386;2023-05-23T06:34:11;27.93;;;16.40;;
18789;SDS011;9523;42.650;23.386;2023-05-23T06:36:39;29.07;;;15.83;;
18789;SDS011;9523;42.650;23.386;2023-05-23T06:39:07;32.30;;;15.47;;
18789;SDS011;9523;42.650;23.386;2023-05-23T06:41:34;26.90;;;15.10;;
18789;SDS011;9523;42.650;23.386;2023-05-23T06:44:01;24.83;;;15.53;;
18789;SDS011;9523;42.650;23.386;2023-05-23T06:46:28;23.13;;;15.53;;
18789;SDS011;9523;42.650;23.386;2023-05-23T06:48:55;29.03;;;16.53;;
18789;SDS011;9523;42.650;23.386;2023-05-23T06:51:22;23.03;;;15.67;;
18789;SDS011;9523;42.650;23.386;2023-05-23T06:53:50;25.27;;;15.47;;
18789;SDS011;9523;42.650;23.386;2023-05-23T06:56:17;29.63;;;16.57;;
18789;SDS011;9523;42.650;23.386;2023-05-23T06:58:44;25.30;;;16.07;;
18789;SDS011;9523;42.650;23.386;2023-05-23T07:01:11;27.00;;;16.23;;
18789;SDS011;9523;42.650;23.386;2023-05-23T07:03:37;27.53;;;16.67;;
18789;SDS011;9523;42.650;23.386;2023-05-23T07:06:05;26.67;;;15.87;;
18789;SDS011;9523;42.650;23.386;2023-05-23T07:08:33;24.80;;;15.43;;
18789;SDS011;9523;42.650;23.386;2023-05-23T07:11:04;31.00;;;16.73;;
18789;SDS011;9523;42.650;23.386;2023-05-23T07:13:31;34.80;;;22.43;;
18789;SDS011;9523;42.650;23.386;2023-05-23T07:15:58;22.60;;;15.07;;
18789;SDS011;9523;42.650;23.386;2023-05-23T07:18:25;24.13;;;15.40;;
18789;SDS011;9523;42.650;23.386;2023-05-23T07:20:52;25.13;;;16.20;;
18789;SDS011;9523;42.650;23.386;2023-05-23T07:23:21;22.10;;;15.33;;
18789;SDS011;9523;42.650;23.386;2023-05-23T07:25:51;23.60;;;14.63;;
18789;SDS011;9523;42.650;23.386;2023-05-23T07:28:25;22.93;;;15.93;;
18789;SDS011;9523;42.650;23.386;2023-05-23T07:30:52;32.83;;;16.63;;
18789;SDS011;9523;42.650;23.386;2023-05-23T07:33:19;22.80;;;15.10;;
18789;SDS011;9523;42.650;23.386;2023-05-23T07:35:46;23.30;;;15.63;;
18789;SDS011;9523;42.650;23.386;2023-05-23T07:38:15;25.57;;;14.97;;
18789;SDS011;9523;42.650;23.386;2023-05-23T07:40:42;27.43;;;15.97;;
18789;SDS011;9523;42.650;23.386;2023-05-23T07:43:09;23.83;;;13.67;;
18789;SDS011;9523;42.650;23.386;2023-05-23T07:45:38;19.87;;;14.17;;
18789;SDS011;9523;42.650;23.386;2023-05-23T07:48:05;21.27;;;13.87;;
18789;SDS011;9523;42.650;23.386;2023-05-23T07:50:32;19.73;;;12.80;;
18789;SDS011;9523;42.650;23.386;2023-05-23T07:52:59;22.30;;;12.93;;
18789;SDS011;9523;42.650;23.386;2023-05-23T07:55:26;20.37;;;13.47;;
18789;SDS011;9523;42.650;23.386;2023-05-23T07:57:53;20.27;;;12.47;;
18789;SDS011;9523;42.650;23.386;2023-05-23T08:00:21;15.77;;;12.17;;
18789;SDS011;9523;42.650;23.386;2023-05-23T08:02:52;16.87;;;11.70;;
18789;SDS011;9523;42.650;23.386;2023-05-23T08:05:19;20.53;;;11.73;;
18789;SDS011;9523;42.650;23.386;2023-05-23T08:07:47;17.57;;;11.73;;
18789;SDS011;9523;42.650;23.386;2023-05-23T08:10:13;21.27;;;12.43;;
18789;SDS011;9523;42.650;23.386;2023-05-23T08:12:40;14.27;;;11.53;;
18789;SDS011;9523;42.650;23.386;2023-05-23T08:15:08;19.17;;;11.83;;
18789;SDS011;9523;42.650;23.386;2023-05-23T08:17:35;30.10;;;17.90;;
18789;SDS011;9523;42.650;23.386;2023-05-23T08:20:07;17.97;;;11.23;;
18789;SDS011;9523;42.650;23.386;2023-05-23T08:22:36;17.67;;;11.07;;
18789;SDS011;9523;42.650;23.386;2023-05-23T08:25:03;16.87;;;10.67;;
18789;SDS011;9523;42.650;23.386;2023-05-23T08:27:31;14.67;;;11.27;;
18789;SDS011;9523;42.650;23.386;2023-05-23T08:30:00;16.13;;;10.90;;
18789;SDS011;9523;42.650;23.386;2023-05-23T08:32:27;14.30;;;10.30;;
18789;SDS011;9523;42.650;23.386;2023-05-23T08:34:54;13.03;;;9.60;;
18789;SDS011;9523;42.650;23.386;2023-05-23T08:37:22;14.80;;;10.27;;
18789;SDS011;9523;42.650;23.386;2023-05-23T08:39:49;12.17;;;9.57;;
18789;SDS011;9523;42.650;23.386;2023-05-23T08:42:16;14.03;;;9.63;;
18789;SDS011;9523;42.650;23.386;2023-05-23T08:44:44;16.37;;;9.53;;
18789;SDS011;9523;42.650;23.386;2023-05-23T08:47:11;13.10;;;9.77;;
18789;SDS011;9523;42.650;23.386;2023-05-23T08:49:47;22.50;;;11.83;;
18789;SDS011;9523;42.650;23.386;2023-05-23T08:52:18;16.92;;;9.30;;
18789;SDS011;9523;42.650;23.386;2023-05-23T08:54:50;13.55;;;8.85;;
18789;SDS011;9523;42.650;23.386;2023-05-23T08:57:18;13.32;;;9.85;;
18789;SDS011;9523;42.650;23.386;2023-05-23T08:59:45;13.43;;;9.48;;
18789;SDS011;9523;42.650;23.386;2023-05-23T09:02:12;11.88;;;8.50;;
18789;SDS011;9523;42.650;23.386;2023-05-23T09:04:40;12.00;;;8.05;;
18789;SDS011;9523;42.650;23.386;2023-05-23T09:07:07;13.40;;;8.15;;
18789;SDS011;9523;42.650;23.386;2023-05-23T09:09:38;14.88;;;7.38;;
18789;SDS011;9523;42.650;23.386;2023-05-23T09:12:05;12.05;;;7.50;;
18789;SDS011;9523;42.650;23.386;2023-05-23T09:14:32;11.95;;;7.28;;
18789;SDS011;9523;42.650;23.386;2023-05-23T09:17:01;8.40;;;7.50;;
18789;SDS011;9523;42.650;23.386;2023-05-23T09:19:28;11.68;;;6.85;;
18789;SDS011;9523;42.650;23.386;2023-05-23T09:21:55;8.55;;;5.57;;
18789;SDS011;9523;42.650;23.386;2023-05-23T09:24:32;6.57;;;5.05;;
18789;SDS011;9523;42.650;23.386;2023-05-23T09:27:01;6.03;;;4.55;;
18789;SDS011;9523;42.650;23.386;2023-05-23T09:29:30;7.95;;;4.00;;
18789;SDS011;9523;42.650;23.386;2023-05-23T09:31:58;6.05;;;4.00;;
18789;SDS011;9523;42.650;23.386;2023-05-23T09:34:26;7.38;;;4.07;;
18789;SDS011;9523;42.650;23.386;2023-05-23T09:36:54;5.18;;;3.90;;
18789;SDS011;9523;42.650;23.386;2023-05-23T09:39:23;7.38;;;3.50;;
18789;SDS011;9523;42.650;23.386;2023-05-23T09:41:55;5.47;;;3.20;;
18789;SDS011;9523;42.650;23.386;2023-05-23T09:44:26;8.25;;;3.80;;
18789;SDS011;9523;42.650;23.386;2023-05-23T09:46:54;5.40;;;3.35;;
18789;SDS011;9523;42.650;23.386;2023-05-23T09:49:21;6.60;;;4.25;;
18789;SDS011;9523;42.650;23.386;2023-05-23T09:51:57;6.30;;;3.78;;
18789;SDS011;9523;42.650;23.386;2023-05-23T09:54:24;5.00;;;3.70;;
18789;SDS011;9523;42.650;23.386;2023-05-23T09:56:55;5.40;;;3.40;;
18789;SDS011;9523;42.650;23.386;2023-05-23T09:59:27;5.43;;;2.88;;
18789;SDS011;9523;42.650;23.386;2023-05-23T10:01:56;5.55;;;3.00;;
18789;SDS011;9523;42.650;23.386;2023-05-23T10:04:29;5.68;;;3.10;;
18789;SDS011;9523;42.650;23.386;2023-05-23T10:07:00;4.05;;;3.08;;
18789;SDS011;9523;42.650;23.386;2023-05-23T10:09:35;5.22;;;3.20;;
18789;SDS011;9523;42.650;23.386;2023-05-23T10:15:10;6.05;;;3.53;;
18789;SDS011;9523;42.650;23.386;2023-05-23T10:17:59;3.95;;;2.72;;
18789;SDS011;9523;42.650;23.386;2023-05-23T10:20:30;4.32;;;3.15;;
18789;SDS011;9523;42.650;23.386;2023-05-23T10:23:02;9.13;;;3.10;;
18789;SDS011;9523;42.650;23.386;2023-05-23T10:25:30;7.35;;;3.25;;
18789;SDS011;9523;42.650;23.386;2023-05-23T10:27:59;4.38;;;2.63;;
18789;SDS011;9523;42.650;23.386;2023-05-23T10:30:28;5.95;;;2.75;;
18789;SDS011;9523;42.650;23.386;2023-05-23T10:32:55;5.47;;;2.47;;
18789;SDS011;9523;42.650;23.386;2023-05-23T10:35:27;3.90;;;2.92;;
18789;SDS011;9523;42.650;23.386;2023-05-23T10:38:17;3.78;;;2.83;;
18789;SDS011;9523;42.650;23.386;2023-05-23T10:40:57;8.95;;;4.32;;
18789;SDS011;9523;42.650;23.386;2023-05-23T10:43:33;5.75;;;2.63;;
18789;SDS011;9523;42.650;23.386;2023-05-23T10:46:09;4.10;;;3.30;;
18789;SDS011;9523;42.650;23.386;2023-05-23T10:48:39;3.92;;;2.95;;
18789;SDS011;9523;42.650;23.386;2023-05-23T10:51:08;3.72;;;2.83;;
18789;SDS011;9523;42.650;23.386;2023-05-23T10:53:36;5.53;;;2.72;;
18789;SDS011;9523;42.650;23.386;2023-05-23T10:56:06;4.43;;;3.13;;
18789;SDS011;9523;42.650;23.386;2023-05-23T10:58:34;6.22;;;2.97;;
18789;SDS011;9523;42.650;23.386;2023-05-23T11:01:04;5.45;;;2.80;;
18789;SDS011;9523;42.650;23.386;2023-05-23T11:03:34;5.72;;;2.72;;
18789;SDS011;9523;42.650;23.386;2023-05-23T11:06:03;3.95;;;3.35;;
18789;SDS011;9523;42.650;23.386;2023-05-23T11:08:59;5.32;;;2.80;;
18789;SDS011;9523;42.650;23.386;2023-05-23T11:14:34;5.28;;;3.40;;
18789;SDS011;9523;42.650;23.386;2023-05-23T11:17:28;5.75;;;2.80;;
18789;SDS011;9523;42.650;23.386;2023-05-23T11:19:59;5.72;;;2.88;;
18789;SDS011;9523;42.650;23.386;2023-05-23T11:22:30;6.13;;;3.22;;
18789;SDS011;9523;42.650;23.386;2023-05-23T11:24:58;4.93;;;2.95;;
18789;SDS011;9523;42.650;23.386;2023-05-23T11:27:26;3.85;;;3.08;;
18789;SDS011;9523;42.650;23.386;2023-05-23T11:29:58;6.93;;;3.20;;
18789;SDS011;9523;42.650;23.386;2023-05-23T11:32:29;4.30;;;2.97;;
18789;SDS011;9523;42.650;23.386;2023-05-23T11:35:01;3.75;;;2.88;;
18789;SDS011;9523;42.650;23.386;2023-05-23T11:37:29;5.65;;;3.25;;
18789;SDS011;9523;42.650;23.386;2023-05-23T11:39:59;6.55;;;2.90;;
18789;SDS011;9523;42.650;23.386;2023-05-23T11:42:45;5.03;;;2.85;;
18789;SDS011;9523;42.650;23.386;2023-05-23T11:45:12;3.08;;;2.78;;
18789;SDS011;9523;42.650;23.386;2023-05-23T11:47:40;3.92;;;2.70;;
18789;SDS011;9523;42.650;23.386;2023-05-23T11:50:09;5.28;;;3.38;;
18789;SDS011;9523;42.650;23.386;2023-05-23T11:52:36;7.30;;;5.63;;
18789;SDS011;9523;42.650;23.386;2023-05-23T11:55:05;9.25;;;5.70;;
18789;SDS011;9523;42.650;23.386;2023-05-23T11:57:32;5.25;;;3.15;;
18789;SDS011;9523;42.650;23.386;2023-05-23T11:59:59;4.38;;;3.58;;
18789;SDS011;9523;42.650;23.386;2023-05-23T12:02:28;5.40;;;3.53;;
18789;SDS011;9523;42.650;23.386;2023-05-23T12:04:54;6.05;;;3.17;;
18789;SDS011;9523;42.650;23.386;2023-05-23T12:07:23;5.15;;;4.07;;
18789;SDS011;9523;42.650;23.386;2023-05-23T12:09:50;3.72;;;2.70;;
18789;SDS011;9523;42.650;23.386;2023-05-23T12:12:21;3.30;;;2.75;;
18789;SDS011;9523;42.650;23.386;2023-05-23T12:14:48;5.38;;;3.28;;
18789;SDS011;9523;42.650;23.386;2023-05-23T12:17:16;3.60;;;3.05;;
18789;SDS011;9523;42.650;23.386;2023-05-23T12:19:44;6.38;;;3.30;;
18789;SDS011;9523;42.650;23.386;2023-05-23T12:22:20;4.35;;;3.08;;
18789;SDS011;9523;42.650;23.386;2023-05-23T12:24:51;4.68;;;2.85;;
18789;SDS011;9523;42.650;23.386;2023-05-23T12:27:25;4.78;;;3.92;;
18789;SDS011;9523;42.650;23.386;2023-05-23T12:30:03;14.77;;;10.23;;
18789;SDS011;9523;42.650;23.386;2023-05-23T12:32:31;6.63;;;4.03;;
18789;SDS011;9523;42.650;23.386;2023-05-23T12:34:58;5.95;;;3.17;;
18789;SDS011;9523;42.650;23.386;2023-05-23T12:37:26;4.35;;;3.03;;
18789;SDS011;9523;42.650;23.386;2023-05-23T12:39:55;11.38;;;9.32;;
18789;SDS011;9523;42.650;23.386;2023-05-23T12:42:22;7.43;;;5.93;;
18789;SDS011;9523;42.650;23.386;2023-05-23T12:44:50;6.00;;;4.10;;
18789;SDS011;9523;42.650;23.386;2023-05-23T12:47:18;9.25;;;4.55;;
18789;SDS011;9523;42.650;23.386;2023-05-23T12:49:45;11.57;;;6.75;;
18789;SDS011;9523;42.650;23.386;2023-05-23T12:52:12;11.15;;;6.05;;
18789;SDS011;9523;42.650;23.386;2023-05-23T12:54:40;6.80;;;4.38;;
18789;SDS011;9523;42.650;23.386;2023-05-23T12:57:07;3.47;;;3.17;;
18789;SDS011;9523;42.650;23.386;2023-05-23T12:59:34;3.38;;;2.67;;
18789;SDS011;9523;42.650;23.386;2023-05-23T13:02:02;4.20;;;3.20;;
18789;SDS011;9523;42.650;23.386;2023-05-23T13:04:29;4.78;;;3.10;;
18789;SDS011;9523;42.650;23.386;2023-05-23T13:06:58;4.47;;;3.25;;
18789;SDS011;9523;42.650;23.386;2023-05-23T13:09:25;10.50;;;3.58;;
18789;SDS011;9523;42.650;23.386;2023-05-23T13:11:54;8.45;;;3.65;;
18789;SDS011;9523;42.650;23.386;2023-05-23T13:14:24;9.27;;;5.80;;
18789;SDS011;9523;42.650;23.386;2023-05-23T13:16:53;6.05;;;3.72;;
18789;SDS011;9523;42.650;23.386;2023-05-23T13:19:20;12.30;;;9.68;;
18789;SDS011;9523;42.650;23.386;2023-05-23T13:21:47;9.07;;;6.38;;
18789;SDS011;9523;42.650;23.386;2023-05-23T13:24:14;3.80;;;3.40;;
18789;SDS011;9523;42.650;23.386;2023-05-23T13:26:41;4.30;;;3.90;;
18789;SDS011;9523;42.650;23.386;2023-05-23T13:29:10;4.43;;;3.70;;
18789;SDS011;9523;42.650;23.386;2023-05-23T13:31:37;6.40;;;4.00;;
18789;SDS011;9523;42.650;23.386;2023-05-23T13:34:04;7.82;;;3.83;;
18789;SDS011;9523;42.650;23.386;2023-05-23T13:36:34;8.40;;;4.40;;
18789;SDS011;9523;42.650;23.386;2023-05-23T13:39:01;5.57;;;3.53;;
18789;SDS011;9523;42.650;23.386;2023-05-23T13:41:28;4.78;;;3.17;;
18789;SDS011;9523;42.650;23.386;2023-05-23T13:43:55;4.18;;;3.30;;
18789;SDS011;9523;42.650;23.386;2023-05-23T13:46:23;7.68;;;4.60;;
18789;SDS011;9523;42.650;23.386;2023-05-23T13:48:50;6.32;;;3.60;;
18789;SDS011;9523;42.650;23.386;2023-05-23T13:51:17;6.30;;;3.70;;
18789;SDS011;9523;42.650;23.386;2023-05-23T13:53:44;4.20;;;2.90;;
18789;SDS011;9523;42.650;23.386;2023-05-23T13:56:11;5.18;;;3.20;;
18789;SDS011;9523;42.650;23.386;2023-05-23T13:58:41;7.07;;;3.20;;
18789;SDS011;9523;42.650;23.386;2023-05-23T14:01:10;4.80;;;3.13;;
18789;SDS011;9523;42.650;23.386;2023-05-23T14:03:38;8.65;;;4.72;;
18789;SDS011;9523;42.650;23.386;2023-05-23T14:06:05;4.95;;;3.80;;
18789;SDS011;9523;42.650;23.386;2023-05-23T14:08:32;4.47;;;3.33;;
18789;SDS011;9523;42.650;23.386;2023-05-23T14:10:59;6.40;;;3.17;;
18789;SDS011;9523;42.650;23.386;2023-05-23T14:13:26;6.10;;;3.72;;
18789;SDS011;9523;42.650;23.386;2023-05-23T14:15:53;7.38;;;4.60;;
18789;SDS011;9523;42.650;23.386;2023-05-23T14:18:20;5.63;;;3.22;;
18789;SDS011;9523;42.650;23.386;2023-05-23T14:20:48;9.55;;;3.80;;
18789;SDS011;9523;42.650;23.386;2023-05-23T14:23:15;3.83;;;2.80;;
18789;SDS011;9523;42.650;23.386;2023-05-23T14:25:42;5.95;;;3.00;;
18789;SDS011;9523;42.650;23.386;2023-05-23T14:28:09;5.82;;;3.10;;
18789;SDS011;9523;42.650;23.386;2023-05-23T14:30:36;6.82;;;2.72;;
18789;SDS011;9523;42.650;23.386;2023-05-23T14:33:03;5.43;;;2.67;;
18789;SDS011;9523;42.650;23.386;2023-05-23T14:35:30;4.82;;;3.03;;
18789;SDS011;9523;42.650;23.386;2023-05-23T14:37:58;5.95;;;2.85;;
18789;SDS011;9523;42.650;23.386;2023-05-23T14:40:25;9.55;;;3.92;;
18789;SDS011;9523;42.650;23.386;2023-05-23T14:42:52;4.05;;;3.10;;
18789;SDS011;9523;42.650;23.386;2023-05-23T14:45:19;8.73;;;5.45;;
18789;SDS011;9523;42.650;23.386;2023-05-23T14:47:46;74.38;;;46.60;;
18789;SDS011;9523;42.650;23.386;2023-05-23T14:50:13;31.35;;;19.60;;
18789;SDS011;9523;42.650;23.386;2023-05-23T14:52:40;10.40;;;6.93;;